createdAt,value
2022-11-05T00:02:24.084Z,41.85
2022-11-05T00:05:10.057Z,39.58
2022-11-05T00:07:58.107Z,35.78
2022-11-05T00:10:27.237Z,36.55
2022-11-05T00:13:13.890Z,37.72
2022-11-05T00:15:59.765Z,38.42
2022-11-05T00:18:27.203Z,38.33
2022-11-05T00:20:54.567Z,40.35
2022-11-05T00:23:40.569Z,39.22
2022-11-05T00:26:09.470Z,40.03
2022-11-05T00:28:36.893Z,40.22
2022-11-05T00:31:09.859Z,38.22
2022-11-05T00:33:37.743Z,39.00
2022-11-05T00:36:05.605Z,41.63
2022-11-05T00:38:33.268Z,38.20
2022-11-05T00:41:00.842Z,45.83
2022-11-05T00:43:46.990Z,37.45
2022-11-05T00:46:14.411Z,38.47
2022-11-05T00:49:00.540Z,38.67
2022-11-05T00:51:27.966Z,38.20
2022-11-05T00:53:55.351Z,39.05
2022-11-05T00:56:22.919Z,36.63
2022-11-05T00:58:50.309Z,38.63
2022-11-05T01:01:17.868Z,37.92
2022-11-05T01:03:51.313Z,38.72
2022-11-05T01:06:19.316Z,39.95
2022-11-05T01:08:46.864Z,37.08
2022-11-05T01:11:38.651Z,33.83
2022-11-05T01:14:08.141Z,37.85
2022-11-05T01:16:36.324Z,35.20
2022-11-05T01:19:04.574Z,38.10
2022-11-05T01:21:32.009Z,39.88
2022-11-05T01:23:59.506Z,39.40
2022-11-05T01:26:27.199Z,40.08
2022-11-05T01:28:55.532Z,44.22
2022-11-05T01:31:23.661Z,42.55
2022-11-05T01:33:51.379Z,43.40
2022-11-05T01:36:19.077Z,36.17
2022-11-05T01:38:46.510Z,43.00
2022-11-05T01:41:13.887Z,41.50
2022-11-05T01:43:51.862Z,40.03
2022-11-05T01:46:22.706Z,36.55
2022-11-05T01:48:55.193Z,38.55
2022-11-05T01:51:27.182Z,38.03
2022-11-05T01:53:58.023Z,40.30
2022-11-05T01:56:29.151Z,42.50
2022-11-05T01:58:58.778Z,38.63
2022-11-05T02:01:26.292Z,40.40
2022-11-05T02:03:55.989Z,42.88
2022-11-05T02:06:23.465Z,41.90
2022-11-05T02:08:54.021Z,35.85
2022-11-05T02:11:21.510Z,39.25
2022-11-05T02:13:49.546Z,41.33
2022-11-05T02:16:16.945Z,40.03
2022-11-05T02:18:56.735Z,40.08
2022-11-05T02:21:27.161Z,39.30
2022-11-05T02:24:01.692Z,38.65
2022-11-05T02:26:47.850Z,40.92
2022-11-05T02:29:33.998Z,40.42
2022-11-05T02:32:01.363Z,45.30
2022-11-05T02:34:28.693Z,48.15
2022-11-05T02:37:06.610Z,40.78
2022-11-05T02:39:44.580Z,50.30
2022-11-05T02:42:16.647Z,44.70
2022-11-05T02:45:06.821Z,42.90
2022-11-05T02:47:51.501Z,47.88
2022-11-05T02:50:20.165Z,45.00
2022-11-05T02:52:52.402Z,39.15
2022-11-05T02:55:37.905Z,47.63
2022-11-05T02:58:05.992Z,40.72
2022-11-05T03:00:52.598Z,41.70
2022-11-05T03:03:19.946Z,38.65
2022-11-05T03:05:50.348Z,39.40
2022-11-05T03:08:29.093Z,38.20
2022-11-05T03:11:00.921Z,38.88
2022-11-05T03:13:36.381Z,40.00
2022-11-05T03:16:08.033Z,40.80
2022-11-05T03:18:42.925Z,44.40
2022-11-05T03:21:12.637Z,38.70
2022-11-05T03:23:46.225Z,42.83
2022-11-05T03:26:19.022Z,37.10
2022-11-05T03:28:48.744Z,43.85
2022-11-05T03:31:17.388Z,43.83
2022-11-05T03:33:45.829Z,40.60
2022-11-05T03:36:16.521Z,43.25
2022-11-05T03:38:45.254Z,40.45
2022-11-05T03:41:14.973Z,40.92
2022-11-05T03:43:45.349Z,42.20
2022-11-05T03:46:51.183Z,41.28
2022-11-05T03:49:22.191Z,42.90
2022-11-05T03:51:52.407Z,43.28
2022-11-05T03:54:19.975Z,38.30
2022-11-05T03:56:52.064Z,40.42
2022-11-05T03:59:20.534Z,38.53
2022-11-05T04:01:48.483Z,37.33
2022-11-05T04:04:16.094Z,41.78
2022-11-05T04:07:19.040Z,36.80
2022-11-05T04:10:05.018Z,39.03
2022-11-05T04:12:51.286Z,40.58
2022-11-05T04:15:18.728Z,39.47
2022-11-05T04:17:46.069Z,41.80
2022-11-05T04:20:32.558Z,40.95
2022-11-05T04:23:39.840Z,40.22
2022-11-05T04:26:07.251Z,45.75
2022-11-05T04:28:53.041Z,44.40
2022-11-05T04:31:20.576Z,41.58
2022-11-05T04:33:47.986Z,43.10
2022-11-05T04:36:15.541Z,45.28
2022-11-05T04:38:42.903Z,40.33
2022-11-05T04:41:14.622Z,42.20
2022-11-05T04:43:42.027Z,41.45
2022-11-05T04:46:09.587Z,40.55
2022-11-05T04:48:37.030Z,37.40
2022-11-05T04:51:04.846Z,43.90
2022-11-05T04:53:32.302Z,40.38
2022-11-05T04:56:11.966Z,42.38
2022-11-05T04:58:40.286Z,37.88
2022-11-05T05:01:11.312Z,45.92
2022-11-05T05:03:38.731Z,40.63
2022-11-05T05:06:06.155Z,46.88
2022-11-05T05:08:33.576Z,40.42
2022-11-05T05:11:08.196Z,38.42
2022-11-05T05:13:35.926Z,43.80
2022-11-05T05:16:10.435Z,44.22
2022-11-05T05:18:42.154Z,40.05
2022-11-05T05:21:31.070Z,44.53
2022-11-05T05:23:58.525Z,42.97
2022-11-05T05:26:25.893Z,41.28
2022-11-05T05:28:53.996Z,38.38
2022-11-05T05:31:22.113Z,41.78
2022-11-05T05:33:49.646Z,37.40
2022-11-05T05:36:17.018Z,41.90
2022-11-05T05:38:44.425Z,38.42
2022-11-05T05:41:11.759Z,38.53
2022-11-05T05:43:39.158Z,43.90
2022-11-05T05:46:07.580Z,43.08
2022-11-05T05:48:35.470Z,39.42
2022-11-05T05:51:03.361Z,38.58
2022-11-05T05:53:30.852Z,44.72
2022-11-05T05:55:58.662Z,45.80
2022-11-05T05:58:27.021Z,82.55
2022-11-05T06:00:55.027Z,65.75
2022-11-05T06:03:22.587Z,39.63
2022-11-05T06:05:50.097Z,44.08
2022-11-05T06:08:17.718Z,40.42
2022-11-05T06:10:51.354Z,40.45
2022-11-05T06:13:18.809Z,42.83
2022-11-05T06:15:46.234Z,42.47
2022-11-05T06:18:14.060Z,40.00
2022-11-05T06:20:41.773Z,42.75
2022-11-05T06:23:09.667Z,44.28
2022-11-05T06:25:41.028Z,46.05
2022-11-05T06:28:08.882Z,44.00
2022-11-05T06:30:36.245Z,39.35
2022-11-05T06:33:06.467Z,42.15
2022-11-05T06:35:33.912Z,38.03
2022-11-05T06:38:02.153Z,44.40
2022-11-05T06:40:30.071Z,43.15
2022-11-05T06:42:57.668Z,38.40
2022-11-05T06:45:25.462Z,46.45
2022-11-05T06:47:57.084Z,50.22
2022-11-05T06:50:25.504Z,53.50
2022-11-05T06:53:00.086Z,47.67
2022-11-05T06:55:28.857Z,63.38
2022-11-05T06:57:56.877Z,60.30
2022-11-05T07:00:24.760Z,47.78
2022-11-05T07:02:52.124Z,39.20
2022-11-05T07:05:19.554Z,60.33
2022-11-05T07:07:46.968Z,41.05
2022-11-05T07:10:15.765Z,39.92
2022-11-05T07:12:43.364Z,43.53
2022-11-05T07:15:11.611Z,39.13
2022-11-05T07:17:39.617Z,35.38
2022-11-05T07:20:08.257Z,37.90
2022-11-05T07:22:36.366Z,36.50
2022-11-05T07:25:04.029Z,36.53
2022-11-05T07:27:31.374Z,37.08
2022-11-05T07:29:58.789Z,38.15
2022-11-05T07:32:26.239Z,38.28
2022-11-05T07:34:53.605Z,34.95
2022-11-05T07:37:21.141Z,34.85
2022-11-05T07:39:48.552Z,33.83
2022-11-05T07:42:16.053Z,32.50
2022-11-05T07:44:43.426Z,35.75
2022-11-05T07:47:10.850Z,33.53
2022-11-05T07:49:38.356Z,32.60
2022-11-05T07:52:06.047Z,34.20
2022-11-05T07:54:33.604Z,36.13
2022-11-05T07:57:01.540Z,32.75
2022-11-05T07:59:28.997Z,35.78
2022-11-05T08:01:56.456Z,33.85
2022-11-05T08:04:24.029Z,35.53
2022-11-05T08:06:51.400Z,34.60
2022-11-05T08:09:18.782Z,34.38
2022-11-05T08:11:46.314Z,36.38
2022-11-05T08:14:13.690Z,33.80
2022-11-05T08:16:41.133Z,32.83
2022-11-05T08:19:08.541Z,30.38
2022-11-05T08:21:35.997Z,30.05
2022-11-05T08:24:03.416Z,31.65
2022-11-05T08:26:30.781Z,29.02
2022-11-05T08:28:58.276Z,30.42
2022-11-05T08:31:25.714Z,30.15
2022-11-05T08:33:57.132Z,28.77
2022-11-05T08:36:27.281Z,34.83
2022-11-05T08:38:54.706Z,34.95
2022-11-05T08:41:23.356Z,28.17
2022-11-05T08:43:50.850Z,35.15
2022-11-05T08:46:18.217Z,28.17
2022-11-05T08:48:45.745Z,30.40
2022-11-05T08:51:13.083Z,28.48
2022-11-05T08:53:40.495Z,26.42
2022-11-05T08:56:07.969Z,28.60
2022-11-05T08:58:35.439Z,31.63
2022-11-05T09:01:05.648Z,34.40
2022-11-05T09:03:33.221Z,28.88
2022-11-05T09:06:00.584Z,27.92
2022-11-05T09:08:27.991Z,30.05
2022-11-05T09:10:55.334Z,32.55
2022-11-05T09:13:23.198Z,28.75
2022-11-05T09:15:51.142Z,29.63
2022-11-05T09:18:18.898Z,25.95
2022-11-05T09:20:46.826Z,28.08
2022-11-05T09:23:17.582Z,29.65
2022-11-05T09:25:45.317Z,28.17
2022-11-05T09:28:17.572Z,30.02
2022-11-05T09:30:46.250Z,30.20
2022-11-05T09:33:14.058Z,30.98
2022-11-05T09:35:42.278Z,26.55
2022-11-05T09:38:09.755Z,24.48
2022-11-05T09:40:40.134Z,26.83
2022-11-05T09:43:07.671Z,29.83
2022-11-05T09:45:36.762Z,27.77
2022-11-05T09:48:11.687Z,29.08
2022-11-05T09:53:06.850Z,31.67
2022-11-05T09:55:36.379Z,29.00
2022-11-05T09:58:07.070Z,31.30
2022-11-05T10:00:34.806Z,29.05
2022-11-05T10:03:05.760Z,33.28
2022-11-05T10:05:34.087Z,32.25
2022-11-05T10:08:07.049Z,28.33
2022-11-05T10:10:40.345Z,28.92
2022-11-05T10:13:27.266Z,32.07
2022-11-05T10:16:05.342Z,30.17
2022-11-05T10:18:37.123Z,36.83
2022-11-05T10:21:04.942Z,26.58
2022-11-05T10:23:33.142Z,25.20
2022-11-05T10:26:12.756Z,28.02
2022-11-05T10:28:40.487Z,29.70
2022-11-05T10:31:09.370Z,28.88
2022-11-05T10:33:40.923Z,29.95
2022-11-05T10:36:11.034Z,25.95
2022-11-05T10:38:38.635Z,24.17
2022-11-05T10:41:15.218Z,26.05
2022-11-05T10:43:48.379Z,27.10
2022-11-05T10:46:15.764Z,32.40
2022-11-05T10:48:49.157Z,25.52
2022-11-05T10:51:17.293Z,29.00
2022-11-05T10:53:58.745Z,29.20
2022-11-05T10:56:30.529Z,28.13
2022-11-05T10:58:58.754Z,24.20
2022-11-05T11:01:27.219Z,24.23
2022-11-05T11:04:05.878Z,24.55
2022-11-05T11:06:39.135Z,29.02
2022-11-05T11:09:18.849Z,28.73
2022-11-05T11:11:46.398Z,26.90
2022-11-05T11:14:13.741Z,24.13
2022-11-05T11:16:42.612Z,28.40
2022-11-05T11:19:21.964Z,28.50
2022-11-05T11:22:10.922Z,28.73
2022-11-05T11:24:39.693Z,27.42
2022-11-05T11:27:22.422Z,28.55
2022-11-05T11:29:51.573Z,26.50
2022-11-05T11:32:21.254Z,27.10
2022-11-05T11:34:53.571Z,28.10
2022-11-05T11:37:24.693Z,30.13
2022-11-05T11:39:54.551Z,27.25
2022-11-05T11:42:29.918Z,23.42
2022-11-05T11:44:59.194Z,26.30
2022-11-05T11:47:27.967Z,30.35
2022-11-05T11:49:57.222Z,27.73
2022-11-05T11:52:30.532Z,28.35
2022-11-05T11:55:10.286Z,29.20
2022-11-05T11:58:06.314Z,28.65
2022-11-05T12:00:40.441Z,28.67
2022-11-05T12:03:10.802Z,25.33
2022-11-05T12:05:41.572Z,28.45
2022-11-05T12:08:17.955Z,28.35
2022-11-05T12:10:52.279Z,29.23
2022-11-05T12:13:20.489Z,32.58
2022-11-05T12:15:55.995Z,31.83
2022-11-05T12:18:42.329Z,28.92
2022-11-05T12:21:41.103Z,31.23
2022-11-05T12:24:14.314Z,28.48
2022-11-05T12:26:41.841Z,44.25
2022-11-05T12:29:21.214Z,32.20
2022-11-05T12:31:55.835Z,29.08
2022-11-05T12:34:23.245Z,32.95
2022-11-05T12:37:08.636Z,32.78
2022-11-05T12:39:54.875Z,30.50
2022-11-05T12:42:22.297Z,25.20
2022-11-05T12:44:53.934Z,28.85
2022-11-05T12:47:27.575Z,28.33
2022-11-05T12:49:59.996Z,30.80
2022-11-05T12:52:56.571Z,31.85
2022-11-05T12:55:25.551Z,32.40
2022-11-05T12:57:54.325Z,30.30
2022-11-05T13:00:23.927Z,36.30
2022-11-05T13:02:57.402Z,31.08
2022-11-05T13:05:35.871Z,27.58
2022-11-05T13:08:09.491Z,26.92
2022-11-05T13:10:52.841Z,28.80
2022-11-05T13:13:26.178Z,28.70
2022-11-05T13:16:10.961Z,28.33
2022-11-05T13:18:53.209Z,30.33
2022-11-05T13:21:24.113Z,28.70
2022-11-05T13:23:56.150Z,27.38
2022-11-05T13:26:29.456Z,27.60
2022-11-05T13:29:02.402Z,26.60
2022-11-05T13:31:35.681Z,28.85
2022-11-05T13:34:05.235Z,30.80
2022-11-05T13:36:53.138Z,25.55
2022-11-05T13:39:24.176Z,29.30
2022-11-05T13:42:00.675Z,27.63
2022-11-05T13:44:31.169Z,29.10
2022-11-05T13:47:07.898Z,28.30
2022-11-05T13:49:48.164Z,24.70
2022-11-05T13:52:36.820Z,24.40
2022-11-05T13:55:16.474Z,21.88
2022-11-05T13:57:52.939Z,28.08
2022-11-05T14:00:21.824Z,28.15
2022-11-05T14:02:55.534Z,27.90
2022-11-05T14:05:22.978Z,30.17
2022-11-05T14:07:50.703Z,30.00
2022-11-05T14:10:31.303Z,28.23
2022-11-05T14:13:00.226Z,29.20
2022-11-05T14:15:29.038Z,27.42
2022-11-05T14:18:02.655Z,26.75
2022-11-05T14:20:33.113Z,24.17
2022-11-05T14:23:39.208Z,22.77
2022-11-05T14:28:36.702Z,25.02
2022-11-05T14:31:05.319Z,50.40
2022-11-05T14:33:33.948Z,27.17
2022-11-05T14:36:19.922Z,34.15
2022-11-05T14:38:51.602Z,31.65
2022-11-05T14:41:20.061Z,27.25
2022-11-05T14:43:49.605Z,27.02
2022-11-05T14:46:17.041Z,31.95
2022-11-05T14:49:08.121Z,30.77
2022-11-05T14:51:39.417Z,24.40
2022-11-05T14:54:06.821Z,26.35
2022-11-05T14:56:56.621Z,22.52
2022-11-05T14:59:33.157Z,26.35
2022-11-05T15:02:03.588Z,28.45
2022-11-05T15:04:31.099Z,26.77
2022-11-05T15:07:04.397Z,27.85
2022-11-05T15:09:41.080Z,29.33
2022-11-05T15:12:20.049Z,30.77
2022-11-05T15:14:56.480Z,26.45
2022-11-05T15:17:30.089Z,27.45
2022-11-05T15:20:09.663Z,28.02
2022-11-05T15:22:48.924Z,26.20
2022-11-05T15:25:24.227Z,29.80
2022-11-05T15:27:54.682Z,28.90
2022-11-05T15:30:22.959Z,25.05
2022-11-05T15:32:50.677Z,26.33
2022-11-05T15:35:19.440Z,26.70
2022-11-05T15:37:52.565Z,25.15
2022-11-05T15:40:31.099Z,28.75
2022-11-05T15:43:10.888Z,27.83
2022-11-05T15:45:38.584Z,33.03
2022-11-05T15:48:13.363Z,29.80
2022-11-05T15:50:41.175Z,24.30
2022-11-05T15:53:44.217Z,23.95
2022-11-05T15:56:12.190Z,24.70
2022-11-05T15:58:43.746Z,28.55
2022-11-05T16:01:20.236Z,26.90
2022-11-05T16:03:47.810Z,26.48
2022-11-05T16:06:15.211Z,24.67
2022-11-05T16:08:46.798Z,23.55
2022-11-05T16:11:21.233Z,27.88
2022-11-05T16:13:48.817Z,25.25
2022-11-05T16:16:16.165Z,28.23
2022-11-05T16:18:44.545Z,23.20
2022-11-05T16:21:13.743Z,27.73
2022-11-05T16:23:41.890Z,26.65
2022-11-05T16:27:00.775Z,26.95
2022-11-05T16:29:35.357Z,27.60
2022-11-05T16:32:05.680Z,30.45
2022-11-05T16:34:36.664Z,29.13
2022-11-05T16:37:05.207Z,26.88
2022-11-05T16:39:32.824Z,28.27
2022-11-05T16:42:00.190Z,26.23
2022-11-05T16:44:27.618Z,28.25
2022-11-05T16:46:55.003Z,28.95
2022-11-05T16:49:22.657Z,30.65
2022-11-05T16:51:50.037Z,25.92
2022-11-05T16:54:17.412Z,25.95
2022-11-05T16:56:47.391Z,28.65
2022-11-05T16:59:15.320Z,26.27
2022-11-05T17:01:43.239Z,27.77
2022-11-05T17:04:13.237Z,28.58
2022-11-05T17:06:40.868Z,27.52
2022-11-05T17:09:08.211Z,32.28
2022-11-05T17:11:35.617Z,28.40
2022-11-05T17:14:02.991Z,33.13
2022-11-05T17:16:30.536Z,25.08
2022-11-05T17:18:57.951Z,25.33
2022-11-05T17:21:25.384Z,33.75
2022-11-05T17:23:52.728Z,35.90
2022-11-05T17:26:20.358Z,26.13
2022-11-05T17:28:47.759Z,34.80
2022-11-05T17:31:15.298Z,27.75
2022-11-05T17:33:42.774Z,29.55
2022-11-05T17:36:11.997Z,33.75
2022-11-05T17:38:39.902Z,31.73
2022-11-05T17:41:14.171Z,34.75
2022-11-05T17:43:41.866Z,35.45
2022-11-05T17:46:10.441Z,31.05
2022-11-05T17:48:38.680Z,30.75
2022-11-05T17:51:09.340Z,29.83
2022-11-05T17:53:37.146Z,31.95
2022-11-05T17:56:08.750Z,30.10
2022-11-05T17:58:36.498Z,33.13
2022-11-05T18:01:03.942Z,34.17
2022-11-05T18:03:31.466Z,33.17
2022-11-05T18:06:05.703Z,36.25
2022-11-05T18:08:33.520Z,31.17
2022-11-05T18:11:01.036Z,39.35
2022-11-05T18:13:28.562Z,34.95
2022-11-05T18:15:55.908Z,30.35
2022-11-05T18:18:23.604Z,32.83
2022-11-05T18:20:51.024Z,31.85
2022-11-05T18:23:18.662Z,32.63
2022-11-05T18:25:45.996Z,32.85
2022-11-05T18:28:13.657Z,34.42
2022-11-05T18:30:41.423Z,32.05
2022-11-05T18:33:09.027Z,35.63
2022-11-05T18:35:41.199Z,36.95
2022-11-05T18:38:08.687Z,34.47
2022-11-05T18:40:36.070Z,33.75
2022-11-05T18:43:03.652Z,35.17
2022-11-05T18:45:32.016Z,37.38
2022-11-05T18:48:00.141Z,33.70
2022-11-05T18:50:27.863Z,34.53
2022-11-05T18:52:55.213Z,36.80
2022-11-05T18:55:22.626Z,35.90
2022-11-05T18:57:49.958Z,36.72
2022-11-05T19:00:17.498Z,33.00
2022-11-05T19:02:44.977Z,40.30
2022-11-05T19:05:29.656Z,36.25
2022-11-05T19:07:57.643Z,41.13
2022-11-05T19:10:25.181Z,42.25
2022-11-05T19:12:53.044Z,42.65
2022-11-05T19:15:20.416Z,38.15
2022-11-05T19:17:47.956Z,37.13
2022-11-05T19:20:15.469Z,39.40
2022-11-05T19:22:42.967Z,47.17
2022-11-05T19:25:10.285Z,41.90
2022-11-05T19:27:38.651Z,39.42
2022-11-05T19:30:06.390Z,40.13
2022-11-05T19:32:33.809Z,42.53
2022-11-05T19:35:01.266Z,45.15
2022-11-05T19:37:28.630Z,42.75
2022-11-05T19:39:56.026Z,42.33
2022-11-05T19:42:23.410Z,41.33
2022-11-05T19:44:50.728Z,53.25
2022-11-05T19:47:18.238Z,43.47
2022-11-05T19:49:45.556Z,44.70
2022-11-05T19:52:12.988Z,44.60
2022-11-05T19:54:40.463Z,46.00
2022-11-05T19:57:07.849Z,40.88
2022-11-05T19:59:35.198Z,43.20
2022-11-05T20:02:02.747Z,44.33
2022-11-05T20:04:30.218Z,46.58
2022-11-05T20:06:58.003Z,45.95
2022-11-05T20:09:25.439Z,53.33
2022-11-05T20:11:59.194Z,49.08
2022-11-05T20:14:27.038Z,53.45
2022-11-05T20:16:54.762Z,53.88
2022-11-05T20:19:22.915Z,52.67
2022-11-05T20:21:50.299Z,54.13
2022-11-05T20:24:24.302Z,51.03
2022-11-05T20:26:52.929Z,54.60
2022-11-05T20:29:20.276Z,56.63
2022-11-05T20:31:47.972Z,59.63
2022-11-05T20:34:15.534Z,56.60
2022-11-05T20:36:43.029Z,52.85
2022-11-05T20:39:12.015Z,62.03
2022-11-05T20:41:39.500Z,62.72
2022-11-05T20:44:06.921Z,59.13
2022-11-05T20:46:34.613Z,56.60
2022-11-05T20:49:01.956Z,59.53
2022-11-05T20:51:29.717Z,59.75
2022-11-05T20:53:58.226Z,66.90
2022-11-05T20:56:27.417Z,58.58
2022-11-05T20:58:55.556Z,62.50
2022-11-05T21:01:23.093Z,59.33
2022-11-05T21:03:50.548Z,62.50
2022-11-05T21:06:18.012Z,76.05
2022-11-05T21:08:47.849Z,62.85
2022-11-05T21:11:15.585Z,67.22
2022-11-05T21:13:43.102Z,65.13
2022-11-05T21:16:15.435Z,62.92
2022-11-05T21:18:45.399Z,66.57
2022-11-05T21:21:14.340Z,68.28
2022-11-05T21:23:41.941Z,67.82
2022-11-05T21:26:11.685Z,72.82
2022-11-05T21:28:40.052Z,71.47
2022-11-05T21:31:08.075Z,71.07
2022-11-05T21:33:35.460Z,71.15
2022-11-05T21:36:06.681Z,68.75
2022-11-05T21:38:34.147Z,64.93
2022-11-05T21:41:02.897Z,67.18
2022-11-05T21:43:30.416Z,72.47
2022-11-05T21:46:01.007Z,64.30
2022-11-05T21:48:28.402Z,69.75
2022-11-05T21:51:14.313Z,63.95
2022-11-05T21:54:00.367Z,70.63
2022-11-05T21:56:46.450Z,67.40
2022-11-05T21:59:33.942Z,69.72
2022-11-05T22:02:01.849Z,69.68
2022-11-05T22:04:34.373Z,70.25
2022-11-05T22:07:02.230Z,70.07
2022-11-05T22:09:29.863Z,75.45
2022-11-05T22:11:57.821Z,75.65
2022-11-05T22:14:25.587Z,69.68
2022-11-05T22:16:53.015Z,72.65
2022-11-05T22:19:21.867Z,80.97
2022-11-05T22:21:49.535Z,71.88
2022-11-05T22:24:17.062Z,73.90
2022-11-05T22:26:45.026Z,71.30
2022-11-05T22:29:12.883Z,74.82
2022-11-05T22:31:40.327Z,66.43
2022-11-05T22:34:07.840Z,70.03
2022-11-05T22:36:35.541Z,73.40
2022-11-05T22:39:03.065Z,73.20
2022-11-05T22:41:30.474Z,73.10
2022-11-05T22:43:58.339Z,71.97
2022-11-05T22:46:27.030Z,74.40
2022-11-05T22:48:55.986Z,71.47
2022-11-05T22:51:25.419Z,74.53
2022-11-05T22:53:53.002Z,77.80
2022-11-05T22:56:21.856Z,72.57
2022-11-05T22:58:49.334Z,77.03
2022-11-05T23:01:17.531Z,81.75
2022-11-05T23:03:45.908Z,78.32
2022-11-05T23:06:36.427Z,77.25
2022-11-05T23:09:23.835Z,85.45
2022-11-05T23:11:52.393Z,78.20
2022-11-05T23:14:19.864Z,75.30
2022-11-05T23:17:05.715Z,82.53
2022-11-05T23:19:51.882Z,84.60
2022-11-05T23:22:39.322Z,80.75
2022-11-05T23:25:07.903Z,87.10
2022-11-05T23:27:36.282Z,95.40
2022-11-05T23:30:06.578Z,87.32
2022-11-05T23:32:34.028Z,85.45
2022-11-05T23:35:01.425Z,94.50
2022-11-05T23:37:48.667Z,92.40
2022-11-05T23:40:21.195Z,94.30
2022-11-05T23:43:07.634Z,88.43
2022-11-05T23:45:53.642Z,97.22
2022-11-05T23:48:33.694Z,95.60
2022-11-05T23:51:02.797Z,90.05
2022-11-05T23:53:31.336Z,98.40
2022-11-05T23:56:03.227Z,98.05
2022-11-05T23:58:30.986Z,93.32
